sensor_id;sensor_type;location;lat;lon;timestamp;pressure;altitude;pressure_sealevel;temperature;humidity
52935;BME280;38802;50.198;19.796;2023-11-19T00:00:25;96627.70;;;-0.02;100.00
52935;BME280;38802;50.198;19.796;2023-11-19T00:03:13;96625.23;;;-0.05;100.00
52935;BME280;38802;50.198;19.796;2023-11-19T00:05:41;96632.28;;;-0.06;100.00
52935;BME280;38802;50.198;19.796;2023-11-19T00:08:09;96629.24;;;-0.02;100.00
52935;BME280;38802;50.198;19.796;2023-11-19T00:10:37;96626.62;;;0.01;100.00
52935;BME280;38802;50.198;19.796;2023-11-19T00:13:05;96619.84;;;-0.01;100.00
52935;BME280;38802;50.198;19.796;2023-11-19T00:15:34;96612.45;;;-0.06;100.00
52935;BME280;38802;50.198;19.796;2023-11-19T00:18:03;96608.60;;;-0.08;100.00
52935;BME280;38802;50.198;19.796;2023-11-19T00:20:32;96607.48;;;-0.05;100.00
52935;BME280;38802;50.198;19.796;2023-11-19T00:23:00;96613.70;;;-0.02;100.00
52935;BME280;38802;50.198;19.796;2023-11-19T00:25:30;96615.88;;;-0.00;100.00
52935;BME280;38802;50.198;19.796;2023-11-19T00:27:58;96614.11;;;0.07;100.00
52935;BME280;38802;50.198;19.796;2023-11-19T00:30:28;96604.38;;;0.07;100.00
52935;BME280;38802;50.198;19.796;2023-11-19T00:32:56;96594.98;;;0.07;100.00
52935;BME280;38802;50.198;19.796;2023-11-19T00:35:24;96595.52;;;0.06;100.00
52935;BME280;38802;50.198;19.796;2023-11-19T00:37:52;96593.72;;;0.08;100.00
52935;BME280;38802;50.198;19.796;2023-11-19T00:40:22;96589.02;;;0.11;100.00
52935;BME280;38802;50.198;19.796;2023-11-19T00:42:51;96576.91;;;0.20;100.00
52935;BME280;38802;50.198;19.796;2023-11-19T00:45:19;96571.81;;;0.24;100.00
52935;BME280;38802;50.198;19.796;2023-11-19T00:47:47;96565.95;;;0.21;100.00
52935;BME280;38802;50.198;19.796;2023-11-19T00:50:15;96560.98;;;0.16;100.00
52935;BME280;38802;50.198;19.796;2023-11-19T00:52:43;96563.20;;;0.16;100.00
52935;BME280;38802;50.198;19.796;2023-11-19T00:55:11;96563.14;;;0.18;100.00
52935;BME280;38802;50.198;19.796;2023-11-19T00:57:40;96560.15;;;0.20;100.00
52935;BME280;38802;50.198;19.796;2023-11-19T01:00:09;96550.92;;;0.24;100.00
52935;BME280;38802;50.198;19.796;2023-11-19T01:02:47;96546.54;;;0.33;100.00
52935;BME280;38802;50.198;19.796;2023-11-19T01:05:19;96547.54;;;0.34;100.00
52935;BME280;38802;50.198;19.796;2023-11-19T01:07:51;96550.26;;;0.34;100.00
52935;BME280;38802;50.198;19.796;2023-11-19T01:10:23;96548.23;;;0.33;100.00
52935;BME280;38802;50.198;19.796;2023-11-19T01:12:52;96544.44;;;0.29;100.00
52935;BME280;38802;50.198;19.796;2023-11-19T01:15:21;96546.13;;;0.21;100.00
52935;BME280;38802;50.198;19.796;2023-11-19T01:17:51;96548.26;;;0.14;100.00
52935;BME280;38802;50.198;19.796;2023-11-19T01:20:21;96549.38;;;0.11;100.00
52935;BME280;38802;50.198;19.796;2023-11-19T01:22:50;96548.13;;;0.13;100.00
52935;BME280;38802;50.198;19.796;2023-11-19T01:25:18;96554.77;;;0.09;100.00
52935;BME280;38802;50.198;19.796;2023-11-19T01:27:46;96554.13;;;0.07;100.00
52935;BME280;38802;50.198;19.796;2023-11-19T01:30:14;96556.62;;;0.05;100.00
52935;BME280;38802;50.198;19.796;2023-11-19T01:32:43;96555.27;;;0.05;100.00
52935;BME280;38802;50.198;19.796;2023-11-19T01:35:11;96549.70;;;0.03;100.00
52935;BME280;38802;50.198;19.796;2023-11-19T01:37:39;96549.38;;;0.02;100.00
52935;BME280;38802;50.198;19.796;2023-11-19T01:40:07;96550.49;;;0.04;100.00
52935;BME280;38802;50.198;19.796;2023-11-19T01:42:38;96545.77;;;0.03;100.00
52935;BME280;38802;50.198;19.796;2023-11-19T01:45:07;96543.21;;;0.02;100.00
52935;BME280;38802;50.198;19.796;2023-11-19T01:47:37;96539.49;;;0.02;100.00
52935;BME280;38802;50.198;19.796;2023-11-19T01:50:06;96539.98;;;0.02;100.00
52935;BME280;38802;50.198;19.796;2023-11-19T01:52:34;96536.23;;;0.02;100.00
52935;BME280;38802;50.198;19.796;2023-11-19T01:55:06;96530.96;;;0.00;100.00
52935;BME280;38802;50.198;19.796;2023-11-19T01:57:37;96527.61;;;-0.02;100.00
52935;BME280;38802;50.198;19.796;2023-11-19T02:00:07;96524.85;;;-0.01;100.00
52935;BME280;38802;50.198;19.796;2023-11-19T02:02:43;96518.63;;;-0.04;100.00
52935;BME280;38802;50.198;19.796;2023-11-19T02:05:12;96521.08;;;-0.05;100.00
52935;BME280;38802;50.198;19.796;2023-11-19T02:07:41;96516.29;;;-0.05;100.00
52935;BME280;38802;50.198;19.796;2023-11-19T02:10:09;96506.52;;;-0.05;100.00
52935;BME280;38802;50.198;19.796;2023-11-19T02:12:42;96500.14;;;-0.03;100.00
52935;BME280;38802;50.198;19.796;2023-11-19T02:15:11;96500.20;;;0.02;100.00
52935;BME280;38802;50.198;19.796;2023-11-19T02:17:39;96492.16;;;0.02;100.00
52935;BME280;38802;50.198;19.796;2023-11-19T02:20:08;96483.31;;;0.01;100.00
52935;BME280;38802;50.198;19.796;2023-11-19T02:22:43;96471.90;;;-0.01;100.00
52935;BME280;38802;50.198;19.796;2023-11-19T02:25:17;96468.42;;;0.01;100.00
52935;BME280;38802;50.198;19.796;2023-11-19T02:30:18;96451.02;;;0.01;100.00
52935;BME280;38802;50.198;19.796;2023-11-19T02:32:46;96443.33;;;-0.04;100.00
52935;BME280;38802;50.198;19.796;2023-11-19T02:35:16;96440.39;;;-0.08;100.00
52935;BME280;38802;50.198;19.796;2023-11-19T02:37:44;96439.41;;;-0.09;100.00
52935;BME280;38802;50.198;19.796;2023-11-19T02:40:12;96433.21;;;-0.03;100.00
52935;BME280;38802;50.198;19.796;2023-11-19T02:42:41;96425.52;;;0.07;100.00
52935;BME280;38802;50.198;19.796;2023-11-19T02:45:09;96420.49;;;0.09;100.00
52935;BME280;38802;50.198;19.796;2023-11-19T02:47:42;96416.06;;;0.09;100.00
52935;BME280;38802;50.198;19.796;2023-11-19T02:50:10;96420.31;;;0.09;100.00
52935;BME280;38802;50.198;19.796;2023-11-19T02:52:42;96412.98;;;0.13;100.00
52935;BME280;38802;50.198;19.796;2023-11-19T02:55:10;96401.96;;;0.20;100.00
52935;BME280;38802;50.198;19.796;2023-11-19T02:57:46;96399.38;;;0.24;100.00
52935;BME280;38802;50.198;19.796;2023-11-19T03:00:17;96398.37;;;0.28;100.00
52935;BME280;38802;50.198;19.796;2023-11-19T03:02:45;96393.28;;;0.27;100.00
52935;BME280;38802;50.198;19.796;2023-11-19T03:05:26;96380.27;;;0.28;100.00
52935;BME280;38802;50.198;19.796;2023-11-19T03:07:58;96367.89;;;0.39;100.00
52935;BME280;38802;50.198;19.796;2023-11-19T03:10:26;96356.05;;;0.45;100.00
52935;BME280;38802;50.198;19.796;2023-11-19T03:12:54;96354.63;;;0.46;100.00
52935;BME280;38802;50.198;19.796;2023-11-19T03:15:24;96353.20;;;0.47;100.00
52935;BME280;38802;50.198;19.796;2023-11-19T03:17:52;96343.38;;;0.45;100.00
52935;BME280;38802;50.198;19.796;2023-11-19T03:20:20;96334.88;;;0.35;100.00
52935;BME280;38802;50.198;19.796;2023-11-19T03:22:48;96337.64;;;0.26;100.00
52935;BME280;38802;50.198;19.796;2023-11-19T03:25:16;96336.48;;;0.17;100.00
52935;BME280;38802;50.198;19.796;2023-11-19T03:27:45;96335.55;;;0.06;100.00
52935;BME280;38802;50.198;19.796;2023-11-19T03:30:13;96333.00;;;-0.04;100.00
52935;BME280;38802;50.198;19.796;2023-11-19T03:32:41;96331.52;;;-0.10;100.00
52935;BME280;38802;50.198;19.796;2023-11-19T03:35:10;96328.02;;;-0.12;100.00
52935;BME280;38802;50.198;19.796;2023-11-19T03:37:39;96332.23;;;-0.11;100.00
52935;BME280;38802;50.198;19.796;2023-11-19T03:40:07;96333.77;;;-0.10;100.00
52935;BME280;38802;50.198;19.796;2023-11-19T03:42:36;96335.91;;;-0.09;100.00
52935;BME280;38802;50.198;19.796;2023-11-19T03:45:04;96333.96;;;-0.07;100.00
52935;BME280;38802;50.198;19.796;2023-11-19T03:47:32;96326.49;;;-0.04;100.00
52935;BME280;38802;50.198;19.796;2023-11-19T03:50:00;96318.70;;;-0.05;100.00
52935;BME280;38802;50.198;19.796;2023-11-19T03:52:28;96314.52;;;-0.08;99.99
52935;BME280;38802;50.198;19.796;2023-11-19T03:55:11;96299.41;;;-0.14;100.00
52935;BME280;38802;50.198;19.796;2023-11-19T03:57:40;96294.98;;;-0.18;100.00
52935;BME280;38802;50.198;19.796;2023-11-19T04:00:08;96291.44;;;-0.24;99.98
52935;BME280;38802;50.198;19.796;2023-11-19T04:02:41;96278.02;;;-0.30;99.98
52935;BME280;38802;50.198;19.796;2023-11-19T04:05:09;96262.14;;;-0.39;99.96
52935;BME280;38802;50.198;19.796;2023-11-19T04:07:40;96265.27;;;-0.45;100.00
52935;BME280;38802;50.198;19.796;2023-11-19T04:10:08;96273.22;;;-0.48;100.00
52935;BME280;38802;50.198;19.796;2023-11-19T04:12:36;96283.00;;;-0.49;100.00
52935;BME280;38802;50.198;19.796;2023-11-19T04:15:05;96279.91;;;-0.49;100.00
52935;BME280;38802;50.198;19.796;2023-11-19T04:17:33;96276.72;;;-0.50;100.00
52935;BME280;38802;50.198;19.796;2023-11-19T04:20:01;96281.09;;;-0.48;100.00
52935;BME280;38802;50.198;19.796;2023-11-19T04:22:32;96271.56;;;-0.49;100.00
52935;BME280;38802;50.198;19.796;2023-11-19T04:25:00;96268.08;;;-0.47;100.00
52935;BME280;38802;50.198;19.796;2023-11-19T04:27:28;96268.89;;;-0.46;100.00
52935;BME280;38802;50.198;19.796;2023-11-19T04:29:58;96268.04;;;-0.50;100.00
52935;BME280;38802;50.198;19.796;2023-11-19T04:32:25;96267.09;;;-0.52;100.00
52935;BME280;38802;50.198;19.796;2023-11-19T04:34:54;96261.92;;;-0.51;100.00
52935;BME280;38802;50.198;19.796;2023-11-19T04:37:22;96261.58;;;-0.51;100.00
52935;BME280;38802;50.198;19.796;2023-11-19T04:39:50;96246.73;;;-0.51;100.00
52935;BME280;38802;50.198;19.796;2023-11-19T04:42:19;96229.13;;;-0.55;100.00
52935;BME280;38802;50.198;19.796;2023-11-19T04:44:48;96221.89;;;-0.57;100.00
52935;BME280;38802;50.198;19.796;2023-11-19T04:47:16;96218.66;;;-0.58;100.00
52935;BME280;38802;50.198;19.796;2023-11-19T04:49:44;96225.63;;;-0.61;100.00
52935;BME280;38802;50.198;19.796;2023-11-19T04:52:12;96225.13;;;-0.61;100.00
52935;BME280;38802;50.198;19.796;2023-11-19T04:54:41;96222.23;;;-0.57;100.00
52935;BME280;38802;50.198;19.796;2023-11-19T04:57:10;96218.82;;;-0.53;100.00
52935;BME280;38802;50.198;19.796;2023-11-19T04:59:38;96215.89;;;-0.52;100.00
52935;BME280;38802;50.198;19.796;2023-11-19T05:02:06;96213.06;;;-0.50;100.00
52935;BME280;38802;50.198;19.796;2023-11-19T05:04:35;96210.73;;;-0.51;100.00
52935;BME280;38802;50.198;19.796;2023-11-19T05:07:05;96212.55;;;-0.50;100.00
52935;BME280;38802;50.198;19.796;2023-11-19T05:09:35;96217.29;;;-0.49;100.00
52935;BME280;38802;50.198;19.796;2023-11-19T05:12:03;96214.24;;;-0.49;100.00
52935;BME280;38802;50.198;19.796;2023-11-19T05:14:31;96213.95;;;-0.55;100.00
52935;BME280;38802;50.198;19.796;2023-11-19T05:16:59;96217.61;;;-0.57;100.00
52935;BME280;38802;50.198;19.796;2023-11-19T05:19:27;96212.79;;;-0.55;100.00
52935;BME280;38802;50.198;19.796;2023-11-19T05:21:55;96204.85;;;-0.54;100.00
52935;BME280;38802;50.198;19.796;2023-11-19T05:24:23;96205.55;;;-0.54;100.00
52935;BME280;38802;50.198;19.796;2023-11-19T05:26:51;96209.95;;;-0.58;100.00
52935;BME280;38802;50.198;19.796;2023-11-19T05:29:19;96209.86;;;-0.59;100.00
52935;BME280;38802;50.198;19.796;2023-11-19T05:31:47;96213.81;;;-0.60;100.00
52935;BME280;38802;50.198;19.796;2023-11-19T05:34:15;96211.17;;;-0.58;100.00
52935;BME280;38802;50.198;19.796;2023-11-19T05:36:43;96208.88;;;-0.56;100.00
52935;BME280;38802;50.198;19.796;2023-11-19T05:39:11;96207.45;;;-0.54;100.00
52935;BME280;38802;50.198;19.796;2023-11-19T05:41:39;96203.67;;;-0.50;100.00
52935;BME280;38802;50.198;19.796;2023-11-19T05:44:07;96201.55;;;-0.48;100.00
52935;BME280;38802;50.198;19.796;2023-11-19T05:46:35;96191.67;;;-0.44;100.00
52935;BME280;38802;50.198;19.796;2023-11-19T05:49:08;96173.24;;;-0.39;100.00
52935;BME280;38802;50.198;19.796;2023-11-19T05:51:37;96166.79;;;-0.36;100.00
52935;BME280;38802;50.198;19.796;2023-11-19T05:54:07;96160.34;;;-0.33;100.00
52935;BME280;38802;50.198;19.796;2023-11-19T05:56:35;96158.33;;;-0.34;100.00
52935;BME280;38802;50.198;19.796;2023-11-19T05:59:03;96155.47;;;-0.35;100.00
52935;BME280;38802;50.198;19.796;2023-11-19T06:01:35;96156.09;;;-0.41;100.00
52935;BME280;38802;50.198;19.796;2023-11-19T06:04:04;96152.79;;;-0.49;100.00
52935;BME280;38802;50.198;19.796;2023-11-19T06:06:32;96156.11;;;-0.55;100.00
52935;BME280;38802;50.198;19.796;2023-11-19T06:09:00;96159.67;;;-0.59;100.00
52935;BME280;38802;50.198;19.796;2023-11-19T06:11:40;96163.70;;;-0.61;100.00
52935;BME280;38802;50.198;19.796;2023-11-19T06:14:08;96156.16;;;-0.60;100.00
52935;BME280;38802;50.198;19.796;2023-11-19T06:16:36;96157.16;;;-0.60;100.00
52935;BME280;38802;50.198;19.796;2023-11-19T06:19:05;96146.34;;;-0.58;100.00
52935;BME280;38802;50.198;19.796;2023-11-19T06:21:33;96142.45;;;-0.55;100.00
52935;BME280;38802;50.198;19.796;2023-11-19T06:24:01;96140.04;;;-0.54;100.00
52935;BME280;38802;50.198;19.796;2023-11-19T06:26:29;96141.28;;;-0.51;100.00
52935;BME280;38802;50.198;19.796;2023-11-19T06:28:57;96137.80;;;-0.49;100.00
52935;BME280;38802;50.198;19.796;2023-11-19T06:31:25;96139.46;;;-0.53;100.00
52935;BME280;38802;50.198;19.796;2023-11-19T06:33:53;96150.46;;;-0.55;100.00
52935;BME280;38802;50.198;19.796;2023-11-19T06:36:21;96157.40;;;-0.53;100.00
52935;BME280;38802;50.198;19.796;2023-11-19T06:38:49;96156.24;;;-0.50;100.00
52935;BME280;38802;50.198;19.796;2023-11-19T06:41:17;96150.20;;;-0.44;100.00
52935;BME280;38802;50.198;19.796;2023-11-19T06:43:45;96151.77;;;-0.36;100.00
52935;BME280;38802;50.198;19.796;2023-11-19T06:46:15;96145.33;;;-0.33;100.00
52935;BME280;38802;50.198;19.796;2023-11-19T06:48:43;96140.91;;;-0.38;100.00
52935;BME280;38802;50.198;19.796;2023-11-19T06:51:12;96135.70;;;-0.40;100.00
52935;BME280;38802;50.198;19.796;2023-11-19T06:53:42;96122.94;;;-0.45;100.00
52935;BME280;38802;50.198;19.796;2023-11-19T06:56:22;96111.87;;;-0.50;100.00
52935;BME280;38802;50.198;19.796;2023-11-19T06:58:51;96115.37;;;-0.52;100.00
52935;BME280;38802;50.198;19.796;2023-11-19T07:01:19;96116.86;;;-0.55;100.00
52935;BME280;38802;50.198;19.796;2023-11-19T07:03:47;96119.63;;;-0.56;100.00
52935;BME280;38802;50.198;19.796;2023-11-19T07:06:16;96116.17;;;-0.59;100.00
52935;BME280;38802;50.198;19.796;2023-11-19T07:08:45;96109.27;;;-0.57;100.00
52935;BME280;38802;50.198;19.796;2023-11-19T07:11:13;96104.07;;;-0.55;100.00
52935;BME280;38802;50.198;19.796;2023-11-19T07:13:42;96093.20;;;-0.52;100.00
52935;BME280;38802;50.198;19.796;2023-11-19T07:16:11;96084.80;;;-0.51;100.00
52935;BME280;38802;50.198;19.796;2023-11-19T07:18:39;96076.38;;;-0.54;100.00
52935;BME280;38802;50.198;19.796;2023-11-19T07:21:07;96075.71;;;-0.54;100.00
52935;BME280;38802;50.198;19.796;2023-11-19T07:23:38;96072.02;;;-0.56;100.00
52935;BME280;38802;50.198;19.796;2023-11-19T07:26:06;96073.49;;;-0.54;100.00
52935;BME280;38802;50.198;19.796;2023-11-19T07:28:36;96083.12;;;-0.52;100.00
52935;BME280;38802;50.198;19.796;2023-11-19T07:31:04;96090.37;;;-0.50;100.00
52935;BME280;38802;50.198;19.796;2023-11-19T07:33:33;96087.20;;;-0.47;100.00
52935;BME280;38802;50.198;19.796;2023-11-19T07:36:01;96092.77;;;-0.46;100.00
52935;BME280;38802;50.198;19.796;2023-11-19T07:38:29;96094.89;;;-0.43;100.00
52935;BME280;38802;50.198;19.796;2023-11-19T07:40:57;96094.73;;;-0.43;100.00
52935;BME280;38802;50.198;19.796;2023-11-19T07:43:25;96097.23;;;-0.42;100.00
52935;BME280;38802;50.198;19.796;2023-11-19T07:45:53;96093.16;;;-0.39;100.00
52935;BME280;38802;50.198;19.796;2023-11-19T07:48:21;96090.66;;;-0.36;100.00
52935;BME280;38802;50.198;19.796;2023-11-19T07:50:52;96084.91;;;-0.29;100.00
52935;BME280;38802;50.198;19.796;2023-11-19T07:53:20;96079.20;;;-0.23;100.00
52935;BME280;38802;50.198;19.796;2023-11-19T07:55:48;96074.56;;;-0.18;100.00
52935;BME280;38802;50.198;19.796;2023-11-19T07:58:16;96062.73;;;-0.17;100.00
52935;BME280;38802;50.198;19.796;2023-11-19T08:00:44;96052.48;;;-0.17;100.00
52935;BME280;38802;50.198;19.796;2023-11-19T08:03:12;96050.40;;;-0.16;100.00
52935;BME280;38802;50.198;19.796;2023-11-19T08:05:40;96050.09;;;-0.13;100.00
52935;BME280;38802;50.198;19.796;2023-11-19T08:08:08;96053.22;;;-0.11;100.00
52935;BME280;38802;50.198;19.796;2023-11-19T08:10:36;96055.20;;;-0.09;100.00
52935;BME280;38802;50.198;19.796;2023-11-19T08:13:05;96047.11;;;-0.08;100.00
52935;BME280;38802;50.198;19.796;2023-11-19T08:15:34;96037.07;;;-0.05;100.00
52935;BME280;38802;50.198;19.796;2023-11-19T08:18:02;96025.80;;;0.00;100.00
52935;BME280;38802;50.198;19.796;2023-11-19T08:20:30;96024.83;;;0.03;100.00
52935;BME280;38802;50.198;19.796;2023-11-19T08:22:58;96017.13;;;0.07;100.00
52935;BME280;38802;50.198;19.796;2023-11-19T08:25:26;96020.77;;;0.09;100.00
52935;BME280;38802;50.198;19.796;2023-11-19T08:27:54;96020.08;;;0.13;100.00
52935;BME280;38802;50.198;19.796;2023-11-19T08:30:22;96018.30;;;0.15;100.00
52935;BME280;38802;50.198;19.796;2023-11-19T08:32:50;96017.42;;;0.19;100.00
52935;BME280;38802;50.198;19.796;2023-11-19T08:35:18;96008.00;;;0.23;100.00
52935;BME280;38802;50.198;19.796;2023-11-19T08:37:46;96010.03;;;0.27;100.00
52935;BME280;38802;50.198;19.796;2023-11-19T08:40:14;96008.60;;;0.33;100.00
52935;BME280;38802;50.198;19.796;2023-11-19T08:42:42;96003.67;;;0.36;100.00
52935;BME280;38802;50.198;19.796;2023-11-19T08:45:10;95994.11;;;0.39;100.00
52935;BME280;38802;50.198;19.796;2023-11-19T08:47:38;95999.42;;;0.39;100.00
52935;BME280;38802;50.198;19.796;2023-11-19T08:50:08;96007.67;;;0.38;100.00
52935;BME280;38802;50.198;19.796;2023-11-19T08:52:37;96005.73;;;0.36;100.00
52935;BME280;38802;50.198;19.796;2023-11-19T08:55:05;95999.39;;;0.36;100.00
52935;BME280;38802;50.198;19.796;2023-11-19T08:57:33;95994.94;;;0.36;100.00
52935;BME280;38802;50.198;19.796;2023-11-19T09:00:01;95991.59;;;0.39;100.00
52935;BME280;38802;50.198;19.796;2023-11-19T09:02:31;95993.84;;;0.41;100.00
52935;BME280;38802;50.198;19.796;2023-11-19T09:05:00;95998.00;;;0.48;100.00
52935;BME280;38802;50.198;19.796;2023-11-19T09:07:29;95994.23;;;0.55;100.00
52935;BME280;38802;50.198;19.796;2023-11-19T09:09:57;95991.88;;;0.62;100.00
52935;BME280;38802;50.198;19.796;2023-11-19T09:12:25;95989.41;;;0.67;100.00
52935;BME280;38802;50.198;19.796;2023-11-19T09:14:53;95981.54;;;0.71;100.00
52935;BME280;38802;50.198;19.796;2023-11-19T09:17:22;95983.11;;;0.74;100.00
52935;BME280;38802;50.198;19.796;2023-11-19T09:19:50;95970.79;;;0.77;100.00
52935;BME280;38802;50.198;19.796;2023-11-19T09:22:18;95961.15;;;0.79;100.00
52935;BME280;38802;50.198;19.796;2023-11-19T09:24:46;95949.20;;;0.75;100.00
52935;BME280;38802;50.198;19.796;2023-11-19T09:27:15;95937.39;;;0.72;100.00
52935;BME280;38802;50.198;19.796;2023-11-19T09:29:46;95934.64;;;0.68;100.00
52935;BME280;38802;50.198;19.796;2023-11-19T09:32:16;95938.16;;;0.70;100.00
52935;BME280;38802;50.198;19.796;2023-11-19T09:34:44;95933.98;;;0.71;100.00
52935;BME280;38802;50.198;19.796;2023-11-19T09:37:13;95919.45;;;0.71;100.00
52935;BME280;38802;50.198;19.796;2023-11-19T09:39:44;95902.15;;;0.69;100.00
52935;BME280;38802;50.198;19.796;2023-11-19T09:42:12;95891.67;;;0.66;100.00
52935;BME280;38802;50.198;19.796;2023-11-19T09:44:40;95909.36;;;0.65;100.00
52935;BME280;38802;50.198;19.796;2023-11-19T09:47:11;95928.23;;;0.70;100.00
52935;BME280;38802;50.198;19.796;2023-11-19T09:49:45;95924.16;;;0.76;100.00
52935;BME280;38802;50.198;19.796;2023-11-19T09:52:13;95911.05;;;0.79;100.00
52935;BME280;38802;50.198;19.796;2023-11-19T09:54:42;95911.52;;;0.83;100.00
52935;BME280;38802;50.198;19.796;2023-11-19T09:57:11;95914.69;;;0.89;100.00
52935;BME280;38802;50.198;19.796;2023-11-19T09:59:40;95910.80;;;0.95;100.00
52935;BME280;38802;50.198;19.796;2023-11-19T10:02:08;95903.18;;;1.00;100.00
52935;BME280;38802;50.198;19.796;2023-11-19T10:04:38;95893.30;;;1.06;100.00
52935;BME280;38802;50.198;19.796;2023-11-19T10:07:08;95886.80;;;1.12;100.00
52935;BME280;38802;50.198;19.796;2023-11-19T10:09:36;95880.30;;;1.22;100.00
52935;BME280;38802;50.198;19.796;2023-11-19T10:12:04;95882.36;;;1.33;100.00
52935;BME280;38802;50.198;19.796;2023-11-19T10:14:33;95878.55;;;1.40;100.00
52935;BME280;38802;50.198;19.796;2023-11-19T10:17:06;95866.11;;;1.49;100.00
52935;BME280;38802;50.198;19.796;2023-11-19T10:19:35;95868.77;;;1.57;100.00
52935;BME280;38802;50.198;19.796;2023-11-19T10:22:06;95867.40;;;1.60;100.00
52935;BME280;38802;50.198;19.796;2023-11-19T10:24:34;95869.45;;;1.64;100.00
52935;BME280;38802;50.198;19.796;2023-11-19T10:27:08;95860.39;;;1.69;100.00
52935;BME280;38802;50.198;19.796;2023-11-19T10:29:37;95850.02;;;1.75;100.00
52935;BME280;38802;50.198;19.796;2023-11-19T10:32:05;95843.91;;;1.77;100.00
52935;BME280;38802;50.198;19.796;2023-11-19T10:35:06;95825.98;;;1.79;100.00
52935;BME280;38802;50.198;19.796;2023-11-19T10:37:35;95815.73;;;1.79;100.00
52935;BME280;38802;50.198;19.796;2023-11-19T10:40:05;95813.27;;;1.80;100.00
52935;BME280;38802;50.198;19.796;2023-11-19T10:42:33;95809.52;;;1.79;100.00
52935;BME280;38802;50.198;19.796;2023-11-19T10:45:01;95807.61;;;1.80;100.00
52935;BME280;38802;50.198;19.796;2023-11-19T10:47:29;95800.54;;;1.81;100.00
52935;BME280;38802;50.198;19.796;2023-11-19T10:50:01;95786.15;;;1.75;100.00
52935;BME280;38802;50.198;19.796;2023-11-19T10:52:30;95778.88;;;1.63;100.00
52935;BME280;38802;50.198;19.796;2023-11-19T10:54:58;95775.67;;;1.59;100.00
52935;BME280;38802;50.198;19.796;2023-11-19T10:57:28;95782.09;;;1.61;100.00
52935;BME280;38802;50.198;19.796;2023-11-19T11:00:00;95784.40;;;1.56;100.00
52935;BME280;38802;50.198;19.796;2023-11-19T11:02:29;95778.23;;;1.50;100.00
52935;BME280;38802;50.198;19.796;2023-11-19T11:05:00;95763.16;;;1.47;100.00
52935;BME280;38802;50.198;19.796;2023-11-19T11:07:33;95754.06;;;1.47;100.00
52935;BME280;38802;50.198;19.796;2023-11-19T11:10:08;95748.17;;;1.48;100.00
52935;BME280;38802;50.198;19.796;2023-11-19T11:12:37;95747.61;;;1.53;100.00
52935;BME280;38802;50.198;19.796;2023-11-19T11:15:13;95738.93;;;1.58;100.00
52935;BME280;38802;50.198;19.796;2023-11-19T11:17:44;95731.77;;;1.64;100.00
52935;BME280;38802;50.198;19.796;2023-11-19T11:20:12;95728.00;;;1.70;100.00
52935;BME280;38802;50.198;19.796;2023-11-19T11:22:44;95728.83;;;1.74;100.00
52935;BME280;38802;50.198;19.796;2023-11-19T11:36:27;95697.67;;;1.65;100.00
52935;BME280;38802;50.198;19.796;2023-11-19T11:38:56;95694.75;;;1.55;100.00
52935;BME280;38802;50.198;19.796;2023-11-19T11:41:28;95693.79;;;1.51;100.00
52935;BME280;38802;50.198;19.796;2023-11-19T11:43:57;95698.25;;;1.44;100.00
52935;BME280;38802;50.198;19.796;2023-11-19T11:49:04;95705.00;;;1.46;100.00
52935;BME280;38802;50.198;19.796;2023-11-19T11:54:11;95688.63;;;1.45;100.00
52935;BME280;38802;50.198;19.796;2023-11-19T11:56:40;95685.04;;;1.42;100.00
52935;BME280;38802;50.198;19.796;2023-11-19T11:59:08;95680.45;;;1.38;100.00
52935;BME280;38802;50.198;19.796;2023-11-19T12:01:58;95678.50;;;1.37;100.00
52935;BME280;38802;50.198;19.796;2023-11-19T12:04:26;95680.58;;;1.33;100.00
52935;BME280;38802;50.198;19.796;2023-11-19T12:07:05;95674.45;;;1.29;100.00
52935;BME280;38802;50.198;19.796;2023-11-19T12:09:34;95659.98;;;1.24;100.00
52935;BME280;38802;50.198;19.796;2023-11-19T12:12:13;95649.06;;;1.20;100.00
52935;BME280;38802;50.198;19.796;2023-11-19T12:15:01;95644.96;;;1.17;100.00
52935;BME280;38802;50.198;19.796;2023-11-19T12:20:01;95642.55;;;1.08;100.00
52935;BME280;38802;50.198;19.796;2023-11-19T12:22:30;95635.75;;;1.05;100.00
52935;BME280;38802;50.198;19.796;2023-11-19T12:24:58;95634.00;;;0.99;100.00
52935;BME280;38802;50.198;19.796;2023-11-19T12:27:27;95628.88;;;0.93;100.00
52935;BME280;38802;50.198;19.796;2023-11-19T12:29:55;95624.25;;;0.86;100.00
52935;BME280;38802;50.198;19.796;2023-11-19T12:32:24;95620.05;;;0.82;100.00
52935;BME280;38802;50.198;19.796;2023-11-19T12:34:52;95615.09;;;0.78;100.00
52935;BME280;38802;50.198;19.796;2023-11-19T12:37:20;95611.27;;;0.76;100.00
52935;BME280;38802;50.198;19.796;2023-11-19T12:39:48;95608.30;;;0.74;100.00
52935;BME280;38802;50.198;19.796;2023-11-19T12:42:17;95605.81;;;0.73;100.00
52935;BME280;38802;50.198;19.796;2023-11-19T12:44:54;95602.52;;;0.74;100.00
52935;BME280;38802;50.198;19.796;2023-11-19T12:47:23;95600.46;;;0.74;100.00
52935;BME280;38802;50.198;19.796;2023-11-19T12:49:55;95595.85;;;0.74;100.00
52935;BME280;38802;50.198;19.796;2023-11-19T12:52:23;95595.73;;;0.73;100.00
52935;BME280;38802;50.198;19.796;2023-11-19T12:54:51;95592.34;;;0.72;100.00
52935;BME280;38802;50.198;19.796;2023-11-19T12:57:19;95587.65;;;0.71;100.00
52935;BME280;38802;50.198;19.796;2023-11-19T12:59:54;95582.19;;;0.67;100.00
52935;BME280;38802;50.198;19.796;2023-11-19T13:02:23;95585.63;;;0.67;100.00
52935;BME280;38802;50.198;19.796;2023-11-19T13:08:10;95573.19;;;0.69;100.00
52935;BME280;38802;50.198;19.796;2023-11-19T13:10:50;95569.93;;;0.70;100.00
52935;BME280;38802;50.198;19.796;2023-11-19T13:13:18;95562.09;;;0.69;100.00
52935;BME280;38802;50.198;19.796;2023-11-19T13:15:46;95557.00;;;0.66;100.00
52935;BME280;38802;50.198;19.796;2023-11-19T13:18:16;95557.23;;;0.64;100.00
52935;BME280;38802;50.198;19.796;2023-11-19T13:20:44;95552.46;;;0.60;100.00